createdAt,value
2019-06-15T00:00:31.489Z,100849.65
2019-06-15T00:03:02.724Z,100850.56
2019-06-15T00:05:33.345Z,100848.71
2019-06-15T00:08:04.888Z,100852.59
2019-06-15T00:10:35.710Z,100846.53
2019-06-15T00:13:06.189Z,100831.08
2019-06-15T00:15:36.739Z,100835.11
2019-06-15T00:18:07.203Z,100835.72
2019-06-15T00:20:37.740Z,100830.45
2019-06-15T00:23:08.257Z,100824.75
2019-06-15T00:25:38.748Z,100818.91
2019-06-15T00:28:09.217Z,100803.33
2019-06-15T00:30:39.624Z,100803.80
2019-06-15T00:33:10.122Z,100790.78
2019-06-15T00:35:40.579Z,100782.53
2019-06-15T00:38:11.109Z,100775.18
2019-06-15T00:40:41.603Z,100767.84
2019-06-15T00:43:12.049Z,100753.06
2019-06-15T00:45:42.537Z,100737.08
2019-06-15T00:48:12.981Z,100729.23
2019-06-15T00:50:43.490Z,100728.73
2019-06-15T00:53:13.992Z,100725.39
2019-06-15T00:55:44.461Z,100722.40
2019-06-15T00:58:14.911Z,100728.45
2019-06-15T01:00:45.398Z,100721.47
2019-06-15T01:03:15.878Z,100727.92
2019-06-15T01:05:46.347Z,100726.19
2019-06-15T01:08:16.887Z,100725.28
2019-06-15T01:10:47.520Z,100718.59
2019-06-15T01:13:17.998Z,100719.13
2019-06-15T01:15:48.589Z,100706.23
2019-06-15T01:18:19.075Z,100703.98
2019-06-15T01:20:49.606Z,100698.40
2019-06-15T01:23:20.155Z,100677.22
2019-06-15T01:25:50.619Z,100675.08
2019-06-15T01:28:21.073Z,100671.77
2019-06-15T01:30:51.639Z,100667.16
2019-06-15T01:33:22.149Z,100667.90
2019-06-15T01:35:52.668Z,100669.80
2019-06-15T01:38:23.094Z,100664.91
2019-06-15T01:40:53.604Z,100662.50
2019-06-15T01:43:24.095Z,100649.36
2019-06-15T01:45:54.595Z,100649.68
2019-06-15T01:48:25.117Z,100644.30
2019-06-15T01:50:55.650Z,100642.82
2019-06-15T01:53:26.229Z,100645.91
2019-06-15T01:55:56.689Z,100644.19
2019-06-15T01:58:27.078Z,100642.91
2019-06-15T02:00:57.889Z,100637.41
2019-06-15T02:03:28.365Z,100630.08
2019-06-15T02:05:58.847Z,100621.82
2019-06-15T02:08:29.360Z,100623.82
2019-06-15T02:10:59.906Z,100613.62
2019-06-15T02:13:30.346Z,100614.64
2019-06-15T02:16:02.194Z,100610.53
2019-06-15T02:18:32.970Z,100608.77
2019-06-15T02:21:03.382Z,100600.47
2019-06-15T02:23:33.888Z,100601.81
2019-06-15T02:26:04.376Z,100590.13
2019-06-15T02:28:34.813Z,100590.62
2019-06-15T02:31:05.562Z,100597.34
2019-06-15T02:33:36.086Z,100589.98
2019-06-15T02:36:06.781Z,100598.64
2019-06-15T02:38:37.154Z,100591.85
2019-06-15T02:41:07.642Z,100589.11
2019-06-15T02:43:38.105Z,100583.99
2019-06-15T02:46:08.703Z,100586.41
2019-06-15T02:48:39.204Z,100578.64
2019-06-15T02:51:09.889Z,100581.95
2019-06-15T02:53:40.377Z,100585.41
2019-06-15T02:56:10.864Z,100581.36
2019-06-15T02:58:41.333Z,100572.98
2019-06-15T03:01:11.858Z,100567.63
2019-06-15T03:03:42.332Z,100558.59
2019-06-15T03:06:12.907Z,100561.40
2019-06-15T03:08:43.826Z,100563.50
2019-06-15T03:11:14.290Z,100573.00
2019-06-15T03:13:45.172Z,100578.92
2019-06-15T03:16:15.689Z,100584.80
2019-06-15T03:18:46.149Z,100582.22
2019-06-15T03:21:16.615Z,100583.25
2019-06-15T03:23:47.084Z,100581.65
2019-06-15T03:26:17.538Z,100583.61
2019-06-15T03:28:48.052Z,100588.42
2019-06-15T03:31:18.527Z,100581.28
2019-06-15T03:33:48.984Z,100580.17
2019-06-15T03:36:19.474Z,100580.88
2019-06-15T03:38:49.949Z,100586.87
2019-06-15T03:41:20.421Z,100587.44
2019-06-15T03:43:50.970Z,100588.11
2019-06-15T03:46:21.377Z,100587.80
2019-06-15T03:48:51.870Z,100606.02
2019-06-15T03:51:22.370Z,100616.95
2019-06-15T03:53:52.921Z,100630.59
2019-06-15T03:56:23.339Z,100632.49
2019-06-15T03:58:53.785Z,100653.19
2019-06-15T04:01:35.162Z,100658.72
2019-06-15T04:04:05.621Z,100655.45
2019-06-15T04:06:36.086Z,100655.73
2019-06-15T04:09:10.111Z,100663.91
2019-06-15T04:11:44.459Z,100678.80
2019-06-15T04:14:14.951Z,100673.05
2019-06-15T04:16:45.447Z,100658.38
2019-06-15T04:19:15.863Z,100656.77
2019-06-15T04:21:46.350Z,100649.80
2019-06-15T04:24:16.823Z,100614.24
2019-06-15T04:26:47.308Z,100594.68
2019-06-15T04:29:17.869Z,100575.00
2019-06-15T04:31:48.335Z,100570.00
2019-06-15T04:34:18.832Z,100566.03
2019-06-15T04:36:49.286Z,100559.35
2019-06-15T04:39:19.767Z,100561.07
2019-06-15T04:41:50.275Z,100545.39
2019-06-15T04:44:20.769Z,100543.57
2019-06-15T04:46:51.255Z,100546.09
2019-06-15T04:49:21.729Z,100554.39
2019-06-15T04:51:52.267Z,100547.08
2019-06-15T04:54:22.749Z,100543.74
2019-06-15T04:56:53.227Z,100551.02
2019-06-15T04:59:23.880Z,100552.13
2019-06-15T05:01:54.377Z,100573.98
2019-06-15T05:04:24.874Z,100572.47
2019-06-15T05:06:55.391Z,100559.44
2019-06-15T05:09:25.853Z,100567.24
2019-06-15T05:11:56.354Z,100561.87
2019-06-15T05:14:26.903Z,100559.96
2019-06-15T05:16:57.299Z,100556.59
2019-06-15T05:19:27.813Z,100544.75
2019-06-15T05:21:58.371Z,100535.22
2019-06-15T05:24:28.884Z,100524.86
2019-06-15T05:27:06.284Z,100514.55
2019-06-15T05:29:31.644Z,100519.97
2019-06-15T05:32:02.164Z,100523.83
2019-06-15T05:34:32.637Z,100513.35
2019-06-15T05:37:03.255Z,100521.33
2019-06-15T05:39:33.726Z,100529.63
2019-06-15T05:42:04.205Z,100520.63
2019-06-15T05:44:34.900Z,100524.58
2019-06-15T05:47:05.403Z,100506.72
2019-06-15T05:49:35.818Z,100492.24
2019-06-15T05:52:06.467Z,100504.54
2019-06-15T05:54:36.964Z,100509.49
2019-06-15T05:57:20.915Z,100509.70
2019-06-15T05:59:39.695Z,100510.16
2019-06-15T06:02:10.610Z,100509.81
2019-06-15T06:04:41.170Z,100497.02
2019-06-15T06:07:11.738Z,100492.28
2019-06-15T06:09:42.229Z,100488.27
2019-06-15T06:12:12.736Z,100475.94
2019-06-15T06:14:43.271Z,100472.91
2019-06-15T06:17:13.910Z,100451.66
2019-06-15T06:19:44.445Z,100444.73
2019-06-15T06:22:15.043Z,100432.39
2019-06-15T06:24:45.569Z,100419.53
2019-06-15T06:27:15.997Z,100380.67
2019-06-15T06:29:46.560Z,100343.23
2019-06-15T06:32:17.142Z,100287.77
2019-06-15T06:34:47.612Z,100266.78
2019-06-15T06:37:18.248Z,100236.14
2019-06-15T06:39:48.770Z,100201.23
2019-06-15T06:42:19.582Z,100199.05
2019-06-15T06:44:50.130Z,100211.61
2019-06-15T06:47:20.726Z,100254.75
2019-06-15T06:49:51.713Z,100328.62
2019-06-15T06:52:22.361Z,100361.66
2019-06-15T06:54:52.850Z,100370.96
2019-06-15T06:57:23.443Z,100380.86
2019-06-15T06:59:53.993Z,100372.22
2019-06-15T07:02:24.542Z,100375.66
2019-06-15T07:04:55.003Z,100361.05
2019-06-15T07:07:25.507Z,100347.34
2019-06-15T07:09:55.944Z,100339.47
2019-06-15T07:12:26.513Z,100356.27
2019-06-15T07:14:57.062Z,100377.08
2019-06-15T07:17:27.593Z,100383.51
2019-06-15T07:19:58.048Z,100364.08
2019-06-15T07:22:28.667Z,100355.31
2019-06-15T07:24:59.115Z,100347.47
2019-06-15T07:27:29.609Z,100322.70
2019-06-15T07:30:00.121Z,100293.52
2019-06-15T07:32:30.629Z,100279.43
2019-06-15T07:35:01.135Z,100293.45
2019-06-15T07:37:32.000Z,100297.24
2019-06-15T07:40:02.573Z,100295.53
2019-06-15T07:42:33.168Z,100303.25
2019-06-15T07:45:03.689Z,100304.70
2019-06-15T07:47:34.184Z,100316.30
2019-06-15T07:50:05.228Z,100310.30
2019-06-15T07:52:35.762Z,100310.95
2019-06-15T07:55:06.959Z,100290.00
2019-06-15T07:57:37.554Z,100279.68
2019-06-15T08:00:09.916Z,100261.93
2019-06-15T08:02:40.435Z,100243.52
2019-06-15T08:05:12.067Z,100239.73
2019-06-15T08:07:43.494Z,100249.40
2019-06-15T08:10:14.301Z,100248.50
2019-06-15T08:12:44.788Z,100284.84
2019-06-15T08:15:15.513Z,100308.00
2019-06-15T08:17:45.977Z,100308.53
2019-06-15T08:20:22.957Z,100294.82
2019-06-15T08:22:53.467Z,100291.12
2019-06-15T08:25:23.993Z,100301.09
2019-06-15T08:27:54.586Z,100316.70
2019-06-15T08:30:36.136Z,100322.06
2019-06-15T08:33:06.753Z,100312.19
2019-06-15T08:35:37.244Z,100322.30
2019-06-15T08:38:07.767Z,100318.34
2019-06-15T08:40:38.278Z,100313.88
2019-06-15T08:43:08.793Z,100304.79
2019-06-15T08:45:39.313Z,100300.55
2019-06-15T08:48:09.941Z,100308.55
2019-06-15T08:50:40.452Z,100309.14
2019-06-15T08:53:10.957Z,100320.73
2019-06-15T08:55:41.490Z,100325.16
2019-06-15T08:58:12.072Z,100324.13
2019-06-15T09:00:42.582Z,100337.83
2019-06-15T09:03:13.113Z,100350.23
2019-06-15T09:05:43.677Z,100351.16
2019-06-15T09:08:14.172Z,100344.27
2019-06-15T09:10:44.676Z,100341.95
2019-06-15T09:13:15.150Z,100347.84
2019-06-15T09:15:53.341Z,100343.41
2019-06-15T09:18:24.274Z,100352.00
2019-06-15T09:20:56.207Z,100342.56
2019-06-15T09:23:26.711Z,100347.19
2019-06-15T09:25:57.219Z,100333.59
2019-06-15T09:28:27.696Z,100328.27
2019-06-15T09:30:58.145Z,100322.89
2019-06-15T09:33:28.628Z,100314.78
2019-06-15T09:35:59.180Z,100313.50
2019-06-15T09:38:29.727Z,100316.33
2019-06-15T09:41:00.259Z,100320.64
2019-06-15T09:43:30.744Z,100330.77
2019-06-15T09:46:01.236Z,100340.23
2019-06-15T09:48:31.724Z,100330.82
2019-06-15T09:51:02.218Z,100322.86
2019-06-15T09:53:32.766Z,100339.21
2019-06-15T09:56:03.262Z,100331.56
2019-06-15T09:58:33.736Z,100333.86
2019-06-15T10:01:04.235Z,100334.36
2019-06-15T10:03:34.720Z,100334.53
2019-06-15T10:06:05.697Z,100345.41
2019-06-15T10:08:36.369Z,100346.41
2019-06-15T10:11:06.904Z,100341.22
2019-06-15T10:13:37.303Z,100342.25
2019-06-15T10:16:07.939Z,100345.61
2019-06-15T10:18:39.028Z,100348.48
2019-06-15T10:21:09.617Z,100349.88
2019-06-15T10:23:40.118Z,100351.10
2019-06-15T10:26:10.612Z,100352.95
2019-06-15T10:28:41.028Z,100345.68
2019-06-15T10:31:11.544Z,100350.00
2019-06-15T10:33:42.130Z,100352.97
2019-06-15T10:36:12.611Z,100343.60
2019-06-15T10:38:43.037Z,100344.16
2019-06-15T10:41:13.540Z,100347.62
2019-06-15T10:43:44.114Z,100349.77
2019-06-15T10:46:14.642Z,100353.33
2019-06-15T10:48:45.124Z,100357.22
2019-06-15T10:51:15.585Z,100362.70
2019-06-15T10:53:46.127Z,100367.02
2019-06-15T10:56:16.605Z,100371.30
2019-06-15T10:58:47.116Z,100373.72
2019-06-15T11:01:17.604Z,100362.77
2019-06-15T11:03:48.002Z,100368.16
2019-06-15T11:06:18.473Z,100377.97
2019-06-15T11:08:48.961Z,100376.98
2019-06-15T11:11:23.621Z,100379.73
2019-06-15T11:13:54.261Z,100372.86
2019-06-15T11:16:24.844Z,100375.47
2019-06-15T11:18:55.325Z,100379.07
2019-06-15T11:21:25.844Z,100386.84
2019-06-15T11:23:56.335Z,100384.23
2019-06-15T11:26:26.813Z,100390.80
2019-06-15T11:28:57.316Z,100397.78
2019-06-15T11:31:27.954Z,100402.16
2019-06-15T11:33:58.516Z,100407.20
2019-06-15T11:36:29.083Z,100417.47
2019-06-15T11:38:59.620Z,100416.39
2019-06-15T11:41:30.097Z,100410.55
2019-06-15T11:44:00.806Z,100417.21
2019-06-15T11:46:31.315Z,100423.28
2019-06-15T11:49:01.785Z,100424.98
2019-06-15T11:51:32.248Z,100423.56
2019-06-15T11:54:03.671Z,100430.63
2019-06-15T11:56:34.171Z,100432.31
2019-06-15T11:59:04.795Z,100435.55
2019-06-15T12:01:35.280Z,100438.46
2019-06-15T12:04:05.743Z,100436.33
2019-06-15T12:06:36.502Z,100433.30
2019-06-15T12:09:09.367Z,100440.52
2019-06-15T12:11:39.827Z,100449.44
2019-06-15T12:14:10.305Z,100455.61
2019-06-15T12:16:40.824Z,100462.09
2019-06-15T12:19:11.324Z,100465.16
2019-06-15T12:21:41.816Z,100468.00
2019-06-15T12:24:12.379Z,100483.48
2019-06-15T12:26:42.864Z,100468.37
2019-06-15T12:29:13.288Z,100449.80
2019-06-15T12:31:43.806Z,100461.23
2019-06-15T12:34:14.246Z,100462.41
2019-06-15T12:36:44.723Z,100463.63
2019-06-15T12:39:15.250Z,100470.63
2019-06-15T12:41:45.828Z,100472.22
2019-06-15T12:44:17.181Z,100473.98
2019-06-15T12:46:47.678Z,100472.55
2019-06-15T12:49:18.169Z,100484.09
2019-06-15T12:51:48.673Z,100477.11
2019-06-15T12:54:19.156Z,100469.22
2019-06-15T12:56:49.675Z,100476.66
2019-06-15T12:59:20.165Z,100485.67
2019-06-15T13:01:50.628Z,100484.20
2019-06-15T13:04:21.093Z,100482.22
2019-06-15T13:06:51.572Z,100486.77
2019-06-15T13:09:22.052Z,100490.98
2019-06-15T13:11:53.896Z,100489.81
2019-06-15T13:14:24.367Z,100489.80
2019-06-15T13:16:54.949Z,100486.44
2019-06-15T13:19:25.520Z,100493.69
2019-06-15T13:21:56.220Z,100494.93
2019-06-15T13:24:26.697Z,100497.13
2019-06-15T13:26:57.153Z,100492.84
2019-06-15T13:29:27.625Z,100504.34
2019-06-15T13:31:58.175Z,100509.95
2019-06-15T13:34:28.726Z,100508.58
2019-06-15T13:36:59.241Z,100514.27
2019-06-15T13:39:29.840Z,100502.11
2019-06-15T13:42:00.282Z,100512.60
2019-06-15T13:44:30.746Z,100511.86
2019-06-15T13:47:01.225Z,100511.94
2019-06-15T13:49:31.732Z,100515.11
2019-06-15T13:52:02.198Z,100525.98
2019-06-15T13:54:32.681Z,100527.87
2019-06-15T13:57:03.266Z,100521.95
2019-06-15T13:59:33.788Z,100526.27
2019-06-15T14:02:04.362Z,100529.55
2019-06-15T14:04:34.842Z,100532.23
2019-06-15T14:07:05.407Z,100526.24
2019-06-15T14:09:35.904Z,100539.59
2019-06-15T14:12:06.497Z,100542.77
2019-06-15T14:14:36.941Z,100542.37
2019-06-15T14:17:07.488Z,100538.45
2019-06-15T14:19:38.014Z,100544.44
2019-06-15T14:22:08.490Z,100540.16
2019-06-15T14:24:39.092Z,100544.89
2019-06-15T14:27:09.559Z,100543.31
2019-06-15T14:29:40.395Z,100538.72
2019-06-15T14:32:10.878Z,100549.11
2019-06-15T14:34:41.353Z,100547.20
2019-06-15T14:37:11.827Z,100550.96
2019-06-15T14:39:42.334Z,100554.05
2019-06-15T14:42:12.808Z,100552.50
2019-06-15T14:44:43.252Z,100545.98
2019-06-15T14:47:13.859Z,100555.83
2019-06-15T14:49:44.330Z,100555.45
2019-06-15T14:52:15.767Z,100560.59
2019-06-15T14:54:46.323Z,100569.28
2019-06-15T14:57:17.714Z,100568.27
2019-06-15T14:59:59.659Z,100577.24
2019-06-15T15:02:20.420Z,100578.53
2019-06-15T15:04:50.897Z,100586.14
2019-06-15T15:07:21.368Z,100583.50
2019-06-15T15:09:51.888Z,100588.59
2019-06-15T15:12:22.477Z,100595.73
2019-06-15T15:14:52.933Z,100611.38
2019-06-15T15:17:23.420Z,100612.16
2019-06-15T15:19:53.902Z,100615.55
2019-06-15T15:22:26.687Z,100618.06
2019-06-15T15:24:56.682Z,100620.59
2019-06-15T15:27:27.415Z,100613.25
2019-06-15T15:29:57.969Z,100626.75
2019-06-15T15:32:31.510Z,100620.94
2019-06-15T15:35:00.655Z,100619.39
2019-06-15T15:37:31.135Z,100621.89
2019-06-15T15:40:01.647Z,100616.86
2019-06-15T15:42:32.117Z,100611.48
2019-06-15T15:45:02.581Z,100612.46
2019-06-15T15:47:33.161Z,100610.94
2019-06-15T15:50:06.271Z,100618.75
2019-06-15T15:52:37.494Z,100623.13
2019-06-15T15:55:09.138Z,100623.05
2019-06-15T15:57:39.593Z,100638.45
2019-06-15T16:00:12.465Z,100636.75
2019-06-15T16:02:51.823Z,100636.50
2019-06-15T16:05:16.597Z,100643.65
2019-06-15T16:07:47.203Z,100657.52
2019-06-15T16:10:17.805Z,100660.69
2019-06-15T16:12:48.284Z,100652.48
2019-06-15T16:15:18.866Z,100660.34
2019-06-15T16:17:49.420Z,100667.94
2019-06-15T16:20:19.948Z,100667.83
2019-06-15T16:22:50.496Z,100666.75
2019-06-15T16:25:21.015Z,100668.03
2019-06-15T16:27:51.524Z,100673.84
2019-06-15T16:30:56.294Z,100686.80
2019-06-15T16:33:05.232Z,100690.34
2019-06-15T16:35:36.310Z,100697.63
2019-06-15T16:38:07.236Z,100700.88
2019-06-15T16:40:39.594Z,100710.95
2019-06-15T16:43:10.416Z,100707.45
2019-06-15T16:45:41.107Z,100719.36
2019-06-15T16:48:11.661Z,100723.26
2019-06-15T16:50:42.160Z,100731.53
2019-06-15T16:53:12.694Z,100732.58
2019-06-15T16:55:43.233Z,100739.23
2019-06-15T16:58:15.952Z,100739.80
2019-06-15T17:00:47.649Z,100738.16
2019-06-15T17:03:24.490Z,100738.87
2019-06-15T17:05:50.740Z,100737.72
2019-06-15T17:08:21.272Z,100745.25
2019-06-15T17:10:51.786Z,100748.41
2019-06-15T17:13:22.331Z,100754.31
2019-06-15T17:15:52.796Z,100753.08
2019-06-15T17:18:23.316Z,100759.95
2019-06-15T17:20:56.334Z,100758.69
2019-06-15T17:23:27.641Z,100759.13
2019-06-15T17:25:58.353Z,100755.45
2019-06-15T17:28:28.875Z,100752.16
2019-06-15T17:30:59.394Z,100757.61
2019-06-15T17:33:37.730Z,100763.94
2019-06-15T17:36:03.338Z,100757.59
2019-06-15T17:38:36.693Z,100758.39
2019-06-15T17:41:06.462Z,100763.00
2019-06-15T17:43:36.984Z,100764.80
2019-06-15T17:46:07.551Z,100761.08
2019-06-15T17:48:38.053Z,100754.70
2019-06-15T17:51:08.550Z,100767.72
2019-06-15T17:53:39.097Z,100767.48
2019-06-15T17:56:09.654Z,100760.36
2019-06-15T17:58:40.249Z,100766.94
2019-06-15T18:01:10.772Z,100770.22
2019-06-15T18:03:50.389Z,100770.22
2019-06-15T18:06:13.569Z,100785.89
2019-06-15T18:08:46.459Z,100782.13
2019-06-15T18:11:16.673Z,100787.20
2019-06-15T18:13:47.472Z,100788.28
2019-06-15T18:16:18.024Z,100793.69
2019-06-15T18:18:48.627Z,100797.03
2019-06-15T18:21:19.141Z,100802.35
2019-06-15T18:23:49.715Z,100800.03
2019-06-15T18:26:20.299Z,100814.14
2019-06-15T18:28:50.839Z,100811.55
2019-06-15T18:31:21.402Z,100815.83
2019-06-15T18:34:06.593Z,100822.80
2019-06-15T18:36:26.100Z,100824.88
2019-06-15T18:38:57.633Z,100825.94
2019-06-15T18:41:28.486Z,100814.78
2019-06-15T18:43:59.019Z,100818.09
2019-06-15T18:46:29.698Z,100810.17
2019-06-15T18:49:00.246Z,100803.80
2019-06-15T18:51:30.823Z,100798.87
2019-06-15T18:54:01.604Z,100795.80
2019-06-15T18:56:32.270Z,100794.42
2019-06-15T18:59:03.008Z,100804.62
2019-06-15T19:01:33.601Z,100812.80
2019-06-15T19:04:06.808Z,100819.50
2019-06-15T19:06:37.135Z,100828.20
2019-06-15T19:09:10.404Z,100811.86
2019-06-15T19:11:40.972Z,100818.28
2019-06-15T19:14:11.594Z,100807.95
2019-06-15T19:16:42.172Z,100808.64
2019-06-15T19:19:12.825Z,100813.55
2019-06-15T19:21:43.438Z,100815.67
2019-06-15T19:24:16.582Z,100825.91
2019-06-15T19:26:46.454Z,100822.46
2019-06-15T19:29:17.268Z,100832.36
2019-06-15T19:31:47.955Z,100832.84
2019-06-15T19:34:18.577Z,100858.37
2019-06-15T19:36:49.090Z,100826.24
2019-06-15T19:39:19.889Z,100832.23
2019-06-15T19:41:50.715Z,100855.60
2019-06-15T19:44:22.323Z,100856.58
2019-06-15T19:46:53.007Z,100862.08
2019-06-15T19:49:25.878Z,100896.92
2019-06-15T19:51:56.565Z,100890.92
2019-06-15T19:54:27.521Z,100900.11
2019-06-15T19:56:58.651Z,100902.44
2019-06-15T19:59:29.372Z,100915.59
2019-06-15T20:02:00.251Z,100920.78
2019-06-15T20:04:30.832Z,100921.59
2019-06-15T20:07:01.341Z,100931.25
2019-06-15T20:09:31.998Z,100926.25
2019-06-15T20:12:02.767Z,100924.41
2019-06-15T20:14:33.521Z,100924.57
2019-06-15T20:17:04.206Z,100929.75
2019-06-15T20:19:37.518Z,100931.59
2019-06-15T20:22:07.297Z,100939.25
2019-06-15T20:24:38.034Z,100945.55
2019-06-15T20:27:10.371Z,100962.53
2019-06-15T20:29:41.088Z,100957.34
2019-06-15T20:32:11.750Z,100969.20
2019-06-15T20:34:42.347Z,100976.81
2019-06-15T20:37:13.136Z,100975.32
2019-06-15T20:39:43.764Z,100972.50
2019-06-15T20:42:16.467Z,100976.48
2019-06-15T20:44:47.372Z,100981.98
2019-06-15T20:47:17.975Z,100985.97
2019-06-15T20:49:48.534Z,100987.62
2019-06-15T20:52:19.094Z,101001.12
2019-06-15T20:54:49.634Z,101013.80
2019-06-15T20:57:20.175Z,101021.95
2019-06-15T20:59:50.735Z,101032.80
2019-06-15T21:02:21.270Z,101028.61
2019-06-15T21:04:51.819Z,101040.09
2019-06-15T21:07:22.298Z,101048.75
2019-06-15T21:09:52.820Z,101059.74
2019-06-15T21:12:23.357Z,101058.92
2019-06-15T21:14:56.080Z,101048.95
2019-06-15T21:17:27.563Z,101054.44
2019-06-15T21:19:58.161Z,101055.80
2019-06-15T21:22:28.642Z,101056.41
2019-06-15T21:24:59.229Z,101067.79
2019-06-15T21:27:29.759Z,101074.58
2019-06-15T21:30:00.232Z,101073.09
2019-06-15T21:32:30.841Z,101074.78
2019-06-15T21:35:01.380Z,101080.59
2019-06-15T21:37:31.967Z,101079.06
2019-06-15T21:40:02.557Z,101081.14
2019-06-15T21:42:33.074Z,101072.42
2019-06-15T21:45:03.733Z,101087.11
2019-06-15T21:47:36.932Z,101075.78
2019-06-15T21:50:07.399Z,101084.09
2019-06-15T21:52:37.907Z,101085.80
2019-06-15T21:55:08.863Z,101083.80
2019-06-15T21:57:39.416Z,101093.44
2019-06-15T22:00:17.481Z,101098.47
2019-06-15T22:02:48.163Z,101103.10
2019-06-15T22:05:18.649Z,101111.17
2019-06-15T22:07:49.198Z,101121.66
2019-06-15T22:10:20.322Z,101121.06
2019-06-15T22:12:50.804Z,101117.81
2019-06-15T22:15:21.359Z,101124.37
2019-06-15T22:17:51.893Z,101120.38
2019-06-15T22:20:22.411Z,101122.16
2019-06-15T22:22:53.011Z,101125.34
2019-06-15T22:25:23.550Z,101115.63
2019-06-15T22:27:56.077Z,101128.97
2019-06-15T22:30:27.710Z,101131.16
2019-06-15T22:32:58.352Z,101134.03
2019-06-15T22:35:28.872Z,101124.91
2019-06-15T22:37:59.512Z,101127.03
2019-06-15T22:40:30.019Z,101133.18
2019-06-15T22:43:00.535Z,101132.00
2019-06-15T22:45:31.050Z,101127.27
2019-06-15T22:48:01.528Z,101131.78
2019-06-15T22:50:32.014Z,101134.63
2019-06-15T22:53:06.417Z,101142.39
2019-06-15T22:55:36.773Z,101132.67
2019-06-15T22:58:06.917Z,101137.70
2019-06-15T23:00:37.718Z,101135.33
2019-06-15T23:03:08.259Z,101140.30
2019-06-15T23:05:38.768Z,101146.41
2019-06-15T23:08:09.317Z,101152.92
2019-06-15T23:10:39.797Z,101154.80
2019-06-15T23:13:10.261Z,101150.32
2019-06-15T23:15:40.772Z,101154.05
2019-06-15T23:18:11.477Z,101157.61
2019-06-15T23:20:41.990Z,101159.77
2019-06-15T23:23:12.505Z,101156.52
2019-06-15T23:25:43.103Z,101149.22
2019-06-15T23:28:13.607Z,101159.07
2019-06-15T23:30:47.001Z,101162.84
2019-06-15T23:33:17.224Z,101164.06
2019-06-15T23:35:53.513Z,101165.54
2019-06-15T23:38:23.918Z,101170.80
2019-06-15T23:40:56.143Z,101172.69
2019-06-15T23:43:27.022Z,101181.82
2019-06-15T23:45:57.571Z,101177.30
2019-06-15T23:48:28.036Z,101180.38
2019-06-15T23:50:58.540Z,101176.27
2019-06-15T23:53:29.063Z,101172.75
2019-06-15T23:55:59.547Z,101168.86
2019-06-15T23:58:30.150Z,101165.91
